Terminal Aerodrome Forecast
Issued by NWS Memphis, TN

Home | Current Version | Previous Version | Text Only | Print | Product List | Glossary On
Versions: 1 2 3 4 5 6 7 8 9 10 11 12 13 14 15 16 17
000
FTUS44 KMEG 280530
TAFJBR
TAF
KJBR 280530Z 2806/2906 21007KT P6SM VCSH BKN070
     FM280800 24004KT P6SM VCSH BKN070
      TEMPO 2808/2812 4SM BR
     FM281600 36008KT P6SM VCTS BKN050CB BKN250
     FM290000 02004KT P6SM SCT050 SCT250=

USA.gov is the U.S. government's official web portal to all federal, state and local government web resources and services.